sensor_id;sensor_type;location;lat;lon;timestamp;pressure;altitude;pressure_sealevel;temperature
66113;BMP280;52893;52.870;5.822;2023-07-24T00:02:00;100248.38;;;18.85
66113;BMP280;52893;52.870;5.822;2023-07-24T00:04:29;100236.94;;;18.76
66113;BMP280;52893;52.870;5.822;2023-07-24T00:06:59;100250.34;;;18.81
66113;BMP280;52893;52.870;5.822;2023-07-24T00:09:26;100236.16;;;18.68
66113;BMP280;52893;52.870;5.822;2023-07-24T00:11:54;100246.41;;;18.78
66113;BMP280;52893;52.870;5.822;2023-07-24T00:14:21;100244.81;;;18.77
66113;BMP280;52893;52.870;5.822;2023-07-24T00:16:49;100240.09;;;18.78
66113;BMP280;52893;52.870;5.822;2023-07-24T00:19:16;100241.25;;;18.77
66113;BMP280;52893;52.870;5.822;2023-07-24T00:21:43;100234.56;;;18.74
66113;BMP280;52893;52.870;5.822;2023-07-24T00:24:12;100233.00;;;18.73
66113;BMP280;52893;52.870;5.822;2023-07-24T00:26:39;100234.59;;;18.71
66113;BMP280;52893;52.870;5.822;2023-07-24T00:29:06;100236.16;;;18.68
66113;BMP280;52893;52.870;5.822;2023-07-24T00:31:33;100233.00;;;18.66
66113;BMP280;52893;52.870;5.822;2023-07-24T00:34:02;100236.16;;;18.64
66113;BMP280;52893;52.870;5.822;2023-07-24T00:36:29;100239.34;;;18.63
66113;BMP280;52893;52.870;5.822;2023-07-24T00:38:56;100244.88;;;18.63
66113;BMP280;52893;52.870;5.822;2023-07-24T00:41:24;100236.94;;;18.65
66113;BMP280;52893;52.870;5.822;2023-07-24T00:43:54;100225.88;;;18.68
66113;BMP280;52893;52.870;5.822;2023-07-24T00:46:21;100236.94;;;18.72
66113;BMP280;52893;52.870;5.822;2023-07-24T00:48:48;100238.13;;;18.78
66113;BMP280;52893;52.870;5.822;2023-07-24T00:51:16;100237.72;;;18.80
66113;BMP280;52893;52.870;5.822;2023-07-24T00:53:44;100236.50;;;18.84
66113;BMP280;52893;52.870;5.822;2023-07-24T00:56:13;100241.25;;;18.87
66113;BMP280;52893;52.870;5.822;2023-07-24T00:58:43;100236.88;;;18.93
66113;BMP280;52893;52.870;5.822;2023-07-24T01:01:10;100228.97;;;18.95
66113;BMP280;52893;52.870;5.822;2023-07-24T01:03:38;100222.66;;;18.98
66113;BMP280;52893;52.870;5.822;2023-07-24T01:06:05;100219.09;;;19.01
66113;BMP280;52893;52.870;5.822;2023-07-24T01:08:33;100222.63;;;19.02
66113;BMP280;52893;52.870;5.822;2023-07-24T01:11:09;100220.66;;;18.99
66113;BMP280;52893;52.870;5.822;2023-07-24T01:13:44;100215.94;;;18.96
66113;BMP280;52893;52.870;5.822;2023-07-24T01:16:17;100217.94;;;18.88
66113;BMP280;52893;52.870;5.822;2023-07-24T01:18:45;100214.03;;;18.82
66113;BMP280;52893;52.870;5.822;2023-07-24T01:21:15;100207.69;;;18.78
66113;BMP280;52893;52.870;5.822;2023-07-24T01:23:54;100199.81;;;18.73
66113;BMP280;52893;52.870;5.822;2023-07-24T01:26:24;100173.38;;;18.58
66113;BMP280;52893;52.870;5.822;2023-07-24T01:28:52;100178.53;;;18.59
66113;BMP280;52893;52.870;5.822;2023-07-24T01:31:19;100178.94;;;18.54
66113;BMP280;52893;52.870;5.822;2023-07-24T01:33:47;100187.22;;;18.51
66113;BMP280;52893;52.870;5.822;2023-07-24T01:36:18;100191.56;;;18.48
66113;BMP280;52893;52.870;5.822;2023-07-24T01:38:47;100188.41;;;18.46
66113;BMP280;52893;52.870;5.822;2023-07-24T01:41:15;100174.59;;;18.46
66113;BMP280;52893;52.870;5.822;2023-07-24T01:43:44;100178.19;;;18.43
66113;BMP280;52893;52.870;5.822;2023-07-24T01:46:11;100179.34;;;18.39
66113;BMP280;52893;52.870;5.822;2023-07-24T01:48:38;100189.63;;;18.38
66113;BMP280;52893;52.870;5.822;2023-07-24T01:51:05;100172.28;;;18.34
66113;BMP280;52893;52.870;5.822;2023-07-24T01:53:33;100179.34;;;18.32
66113;BMP280;52893;52.870;5.822;2023-07-24T01:56:00;100173.41;;;18.30
66113;BMP280;52893;52.870;5.822;2023-07-24T01:58:27;100174.22;;;18.27
66113;BMP280;52893;52.870;5.822;2023-07-24T02:00:56;100169.91;;;18.26
66113;BMP280;52893;52.870;5.822;2023-07-24T02:03:23;100156.50;;;18.17
66113;BMP280;52893;52.870;5.822;2023-07-24T02:05:51;100172.66;;;18.26
66113;BMP280;52893;52.870;5.822;2023-07-24T02:08:18;100167.50;;;18.28
66113;BMP280;52893;52.870;5.822;2023-07-24T02:10:48;100157.25;;;18.28
66113;BMP280;52893;52.870;5.822;2023-07-24T02:13:15;100140.69;;;18.18
66113;BMP280;52893;52.870;5.822;2023-07-24T02:15:48;100166.34;;;18.32
66113;BMP280;52893;52.870;5.822;2023-07-24T02:18:17;100161.22;;;18.34
66113;BMP280;52893;52.870;5.822;2023-07-24T02:20:48;100151.34;;;18.33
66113;BMP280;52893;52.870;5.822;2023-07-24T02:23:17;100159.59;;;18.37
66113;BMP280;52893;52.870;5.822;2023-07-24T02:25:44;100153.28;;;18.40
66113;BMP280;52893;52.870;5.822;2023-07-24T02:28:11;100143.81;;;18.41
66113;BMP280;52893;52.870;5.822;2023-07-24T02:30:39;100157.22;;;18.46
66113;BMP280;52893;52.870;5.822;2023-07-24T02:33:06;100143.38;;;18.49
66113;BMP280;52893;52.870;5.822;2023-07-24T02:35:39;100150.50;;;18.54
66113;BMP280;52893;52.870;5.822;2023-07-24T02:38:07;100145.34;;;18.56
66113;BMP280;52893;52.870;5.822;2023-07-24T02:40:35;100147.72;;;18.61
66113;BMP280;52893;52.870;5.822;2023-07-24T02:43:02;100132.31;;;18.60
66113;BMP280;52893;52.870;5.822;2023-07-24T02:45:29;100130.72;;;18.62
66113;BMP280;52893;52.870;5.822;2023-07-24T02:47:57;100132.69;;;18.69
66113;BMP280;52893;52.870;5.822;2023-07-24T02:50:24;100138.63;;;18.71
66113;BMP280;52893;52.870;5.822;2023-07-24T02:52:52;100135.06;;;18.71
66113;BMP280;52893;52.870;5.822;2023-07-24T02:55:20;100147.25;;;18.77
66113;BMP280;52893;52.870;5.822;2023-07-24T02:57:47;100141.75;;;18.80
66113;BMP280;52893;52.870;5.822;2023-07-24T03:00:14;100144.47;;;18.84
66113;BMP280;52893;52.870;5.822;2023-07-24T03:02:42;100145.25;;;18.84
66113;BMP280;52893;52.870;5.822;2023-07-24T03:05:09;100143.69;;;18.83
66113;BMP280;52893;52.870;5.822;2023-07-24T03:07:36;100143.69;;;18.83
66113;BMP280;52893;52.870;5.822;2023-07-24T03:10:06;100142.50;;;18.84
66113;BMP280;52893;52.870;5.822;2023-07-24T03:12:33;100126.31;;;18.79
66113;BMP280;52893;52.870;5.822;2023-07-24T03:15:00;100119.63;;;18.80
66113;BMP280;52893;52.870;5.822;2023-07-24T03:17:28;100127.09;;;18.83
66113;BMP280;52893;52.870;5.822;2023-07-24T03:19:55;100127.09;;;18.83
66113;BMP280;52893;52.870;5.822;2023-07-24T03:22:22;100119.16;;;18.85
66113;BMP280;52893;52.870;5.822;2023-07-24T03:24:50;100131.44;;;18.84
66113;BMP280;52893;52.870;5.822;2023-07-24T03:27:18;100130.25;;;18.82
66113;BMP280;52893;52.870;5.822;2023-07-24T03:29:46;100144.84;;;18.86
66113;BMP280;52893;52.870;5.822;2023-07-24T03:32:14;100133.41;;;18.87
66113;BMP280;52893;52.870;5.822;2023-07-24T03:34:41;100138.53;;;18.85
66113;BMP280;52893;52.870;5.822;2023-07-24T03:37:08;100128.69;;;18.81
66113;BMP280;52893;52.870;5.822;2023-07-24T03:39:35;100121.56;;;18.83
66113;BMP280;52893;52.870;5.822;2023-07-24T03:42:03;100107.41;;;18.71
66113;BMP280;52893;52.870;5.822;2023-07-24T03:44:33;100129.88;;;18.80
66113;BMP280;52893;52.870;5.822;2023-07-24T03:47:00;100124.75;;;18.78
66113;BMP280;52893;52.870;5.822;2023-07-24T03:49:28;100112.91;;;18.74
66113;BMP280;52893;52.870;5.822;2023-07-24T03:51:55;100107.75;;;18.76
66113;BMP280;52893;52.870;5.822;2023-07-24T03:54:22;100121.56;;;18.76
66113;BMP280;52893;52.870;5.822;2023-07-24T03:56:50;100116.88;;;18.73
66113;BMP280;52893;52.870;5.822;2023-07-24T03:59:17;100090.06;;;18.56
66113;BMP280;52893;52.870;5.822;2023-07-24T04:01:46;100099.56;;;18.62
66113;BMP280;52893;52.870;5.822;2023-07-24T04:04:14;100112.16;;;18.70
66113;BMP280;52893;52.870;5.822;2023-07-24T04:06:41;100099.91;;;18.71
66113;BMP280;52893;52.870;5.822;2023-07-24T04:09:08;100100.28;;;18.73
66113;BMP280;52893;52.870;5.822;2023-07-24T04:11:36;100108.19;;;18.71
66113;BMP280;52893;52.870;5.822;2023-07-24T04:14:05;100090.47;;;18.61
66113;BMP280;52893;52.870;5.822;2023-07-24T04:16:32;100106.59;;;18.74
66113;BMP280;52893;52.870;5.822;2023-07-24T04:19:01;100101.84;;;18.74
66113;BMP280;52893;52.870;5.822;2023-07-24T04:21:28;100098.69;;;18.76
66113;BMP280;52893;52.870;5.822;2023-07-24T04:23:55;100097.50;;;18.80
66113;BMP280;52893;52.870;5.822;2023-07-24T04:26:22;100107.72;;;18.83
66113;BMP280;52893;52.870;5.822;2023-07-24T04:28:49;100059.66;;;18.56
66113;BMP280;52893;52.870;5.822;2023-07-24T04:31:16;100103.38;;;18.86
66113;BMP280;52893;52.870;5.822;2023-07-24T04:33:44;100111.22;;;18.94
66113;BMP280;52893;52.870;5.822;2023-07-24T04:36:12;100114.38;;;18.96
66113;BMP280;52893;52.870;5.822;2023-07-24T04:38:39;100108.06;;;18.99
66113;BMP280;52893;52.870;5.822;2023-07-24T04:41:07;100110.44;;;19.01
66113;BMP280;52893;52.870;5.822;2023-07-24T04:43:34;100104.91;;;19.01
66113;BMP280;52893;52.870;5.822;2023-07-24T04:46:01;100093.41;;;19.02
66113;BMP280;52893;52.870;5.822;2023-07-24T04:48:28;100091.81;;;19.05
66113;BMP280;52893;52.870;5.822;2023-07-24T04:50:56;100075.69;;;18.93
66113;BMP280;52893;52.870;5.822;2023-07-24T04:53:24;100085.13;;;19.02
66113;BMP280;52893;52.870;5.822;2023-07-24T04:55:52;100097.31;;;19.08
66113;BMP280;52893;52.870;5.822;2023-07-24T04:58:19;100095.34;;;19.09
66113;BMP280;52893;52.870;5.822;2023-07-24T05:00:46;100099.28;;;19.11
66113;BMP280;52893;52.870;5.822;2023-07-24T05:03:13;100108.75;;;19.14
66113;BMP280;52893;52.870;5.822;2023-07-24T05:05:43;100107.97;;;19.13
66113;BMP280;52893;52.870;5.822;2023-07-24T05:08:10;100108.78;;;19.10
66113;BMP280;52893;52.870;5.822;2023-07-24T05:10:38;100104.06;;;19.07
66113;BMP280;52893;52.870;5.822;2023-07-24T05:13:06;100113.53;;;19.10
66113;BMP280;52893;52.870;5.822;2023-07-24T05:15:33;100108.00;;;19.10
66113;BMP280;52893;52.870;5.822;2023-07-24T05:18:00;100097.72;;;19.10
66113;BMP280;52893;52.870;5.822;2023-07-24T05:20:27;100097.72;;;19.10
66113;BMP280;52893;52.870;5.822;2023-07-24T05:22:54;100101.69;;;19.09
66113;BMP280;52893;52.870;5.822;2023-07-24T05:25:21;100106.41;;;19.09
66113;BMP280;52893;52.870;5.822;2023-07-24T05:27:50;100111.56;;;19.10
66113;BMP280;52893;52.870;5.822;2023-07-24T05:30:17;100111.56;;;19.10
66113;BMP280;52893;52.870;5.822;2023-07-24T05:32:44;100108.78;;;19.10
66113;BMP280;52893;52.870;5.822;2023-07-24T05:35:11;100100.09;;;19.08
66113;BMP280;52893;52.870;5.822;2023-07-24T05:37:39;100112.38;;;19.07
66113;BMP280;52893;52.870;5.822;2023-07-24T05:40:07;100102.09;;;19.04
66113;BMP280;52893;52.870;5.822;2023-07-24T05:42:34;100097.72;;;19.03
66113;BMP280;52893;52.870;5.822;2023-07-24T05:45:07;100099.31;;;19.04
66113;BMP280;52893;52.870;5.822;2023-07-24T05:47:35;100100.50;;;19.07
66113;BMP280;52893;52.870;5.822;2023-07-24T05:50:02;100096.16;;;19.09
66113;BMP280;52893;52.870;5.822;2023-07-24T05:52:29;100096.53;;;19.11
66113;BMP280;52893;52.870;5.822;2023-07-24T05:54:56;100095.31;;;19.12
66113;BMP280;52893;52.870;5.822;2023-07-24T05:57:24;100096.13;;;19.16
66113;BMP280;52893;52.870;5.822;2023-07-24T05:59:51;100102.03;;;19.18
66113;BMP280;52893;52.870;5.822;2023-07-24T06:02:20;100103.94;;;19.21
66113;BMP280;52893;52.870;5.822;2023-07-24T06:04:47;100105.50;;;19.26
66113;BMP280;52893;52.870;5.822;2023-07-24T06:07:14;100099.97;;;19.26
66113;BMP280;52893;52.870;5.822;2023-07-24T06:09:41;100108.63;;;19.32
66113;BMP280;52893;52.870;5.822;2023-07-24T06:12:09;100104.69;;;19.33
66113;BMP280;52893;52.870;5.822;2023-07-24T06:14:36;100108.63;;;19.35
66113;BMP280;52893;52.870;5.822;2023-07-24T06:17:03;100105.84;;;19.39
66113;BMP280;52893;52.870;5.822;2023-07-24T06:19:32;100107.00;;;19.41
66113;BMP280;52893;52.870;5.822;2023-07-24T06:21:59;100109.34;;;19.46
66113;BMP280;52893;52.870;5.822;2023-07-24T06:24:26;100102.56;;;19.51
66113;BMP280;52893;52.870;5.822;2023-07-24T06:26:54;100106.50;;;19.53
66113;BMP280;52893;52.870;5.822;2023-07-24T06:29:21;100106.50;;;19.53
66113;BMP280;52893;52.870;5.822;2023-07-24T06:31:48;100102.16;;;19.56
66113;BMP280;52893;52.870;5.822;2023-07-24T06:34:16;100102.91;;;19.60
66113;BMP280;52893;52.870;5.822;2023-07-24T06:36:44;100108.78;;;19.65
66113;BMP280;52893;52.870;5.822;2023-07-24T06:39:11;100110.31;;;19.70
66113;BMP280;52893;52.870;5.822;2023-07-24T06:41:38;100109.91;;;19.75
66113;BMP280;52893;52.870;5.822;2023-07-24T06:44:06;100116.19;;;19.79
66113;BMP280;52893;52.870;5.822;2023-07-24T06:46:33;100111.47;;;19.76
66113;BMP280;52893;52.870;5.822;2023-07-24T06:49:00;100114.59;;;19.78
66113;BMP280;52893;52.870;5.822;2023-07-24T06:51:27;100120.13;;;19.78
66113;BMP280;52893;52.870;5.822;2023-07-24T06:53:56;100116.19;;;19.79
66113;BMP280;52893;52.870;5.822;2023-07-24T06:56:23;100109.84;;;19.78
66113;BMP280;52893;52.870;5.822;2023-07-24T06:58:50;100113.81;;;19.81
66113;BMP280;52893;52.870;5.822;2023-07-24T07:01:17;100117.69;;;19.87
66113;BMP280;52893;52.870;5.822;2023-07-24T07:03:44;100119.25;;;19.95
66113;BMP280;52893;52.870;5.822;2023-07-24T07:06:11;100106.19;;;19.92
66113;BMP280;52893;52.870;5.822;2023-07-24T07:08:39;100121.84;;;20.09
66113;BMP280;52893;52.870;5.822;2023-07-24T07:11:07;100125.41;;;20.10
66113;BMP280;52893;52.870;5.822;2023-07-24T07:13:35;100114.28;;;20.13
66113;BMP280;52893;52.870;5.822;2023-07-24T07:16:02;100118.63;;;20.14
66113;BMP280;52893;52.870;5.822;2023-07-24T07:18:29;100119.00;;;20.16
66113;BMP280;52893;52.870;5.822;2023-07-24T07:20:56;100122.13;;;20.18
66113;BMP280;52893;52.870;5.822;2023-07-24T07:23:23;100126.50;;;20.19
66113;BMP280;52893;52.870;5.822;2023-07-24T07:25:51;100128.47;;;20.19
66113;BMP280;52893;52.870;5.822;2023-07-24T07:28:19;100128.50;;;20.15
66113;BMP280;52893;52.870;5.822;2023-07-24T07:30:47;100128.50;;;20.15
66113;BMP280;52893;52.870;5.822;2023-07-24T07:33:14;100134.09;;;20.08
66113;BMP280;52893;52.870;5.822;2023-07-24T07:35:41;100125.44;;;20.06
66113;BMP280;52893;52.870;5.822;2023-07-24T07:38:09;100127.84;;;20.01
66113;BMP280;52893;52.870;5.822;2023-07-24T07:40:37;100123.94;;;19.98
66113;BMP280;52893;52.870;5.822;2023-07-24T07:43:05;100123.94;;;19.98
66113;BMP280;52893;52.870;5.822;2023-07-24T07:45:33;100112.13;;;19.94
66113;BMP280;52893;52.870;5.822;2023-07-24T07:48:00;100119.25;;;19.95
66113;BMP280;52893;52.870;5.822;2023-07-24T07:50:27;100123.13;;;19.98
66113;BMP280;52893;52.870;5.822;2023-07-24T07:52:55;100123.94;;;19.98
66113;BMP280;52893;52.870;5.822;2023-07-24T07:55:22;100125.53;;;19.96
66113;BMP280;52893;52.870;5.822;2023-07-24T07:57:49;100125.97;;;19.87
66113;BMP280;52893;52.870;5.822;2023-07-24T08:00:17;100119.31;;;19.85
66113;BMP280;52893;52.870;5.822;2023-07-24T08:02:45;100121.25;;;19.88
66113;BMP280;52893;52.870;5.822;2023-07-24T08:05:12;100115.31;;;19.89
66113;BMP280;52893;52.870;5.822;2023-07-24T08:07:39;100118.06;;;19.89
66113;BMP280;52893;52.870;5.822;2023-07-24T08:10:07;100114.13;;;19.90
66113;BMP280;52893;52.870;5.822;2023-07-24T08:12:35;100114.91;;;19.87
66113;BMP280;52893;52.870;5.822;2023-07-24T08:15:02;100111.41;;;19.83
66113;BMP280;52893;52.870;5.822;2023-07-24T08:17:30;100111.47;;;19.76
66113;BMP280;52893;52.870;5.822;2023-07-24T08:19:58;100113.94;;;19.67
66113;BMP280;52893;52.870;5.822;2023-07-24T08:22:26;100104.53;;;19.54
66113;BMP280;52893;52.870;5.822;2023-07-24T08:24:53;100098.59;;;19.55
66113;BMP280;52893;52.870;5.822;2023-07-24T08:27:20;100101.31;;;19.59
66113;BMP280;52893;52.870;5.822;2023-07-24T08:29:50;100094.97;;;19.62
66113;BMP280;52893;52.870;5.822;2023-07-24T08:32:18;100091.31;;;19.72
66113;BMP280;52893;52.870;5.822;2023-07-24T08:34:45;100088.94;;;19.74
66113;BMP280;52893;52.870;5.822;2023-07-24T08:37:14;100091.66;;;19.77
66113;BMP280;52893;52.870;5.822;2023-07-24T08:39:41;100089.28;;;19.79
66113;BMP280;52893;52.870;5.822;2023-07-24T08:42:09;100092.41;;;19.85
66113;BMP280;52893;52.870;5.822;2023-07-24T08:44:37;100100.25;;;19.90
66113;BMP280;52893;52.870;5.822;2023-07-24T08:47:06;100097.06;;;19.92
66113;BMP280;52893;52.870;5.822;2023-07-24T08:49:37;100086.41;;;19.90
66113;BMP280;52893;52.870;5.822;2023-07-24T08:52:07;100091.03;;;20.04
66113;BMP280;52893;52.870;5.822;2023-07-24T08:54:38;100087.41;;;20.10
66113;BMP280;52893;52.870;5.822;2023-07-24T08:57:06;100078.25;;;20.13
66113;BMP280;52893;52.870;5.822;2023-07-24T08:59:34;100095.91;;;20.26
66113;BMP280;52893;52.870;5.822;2023-07-24T09:02:02;100095.81;;;20.37
66113;BMP280;52893;52.870;5.822;2023-07-24T09:04:29;100087.03;;;20.42
66113;BMP280;52893;52.870;5.822;2023-07-24T09:06:56;100090.47;;;20.53
66113;BMP280;52893;52.870;5.822;2023-07-24T09:09:29;100098.84;;;20.80
66113;BMP280;52893;52.870;5.822;2023-07-24T09:11:58;100101.41;;;20.94
66113;BMP280;52893;52.870;5.822;2023-07-24T09:14:27;100097.47;;;20.91
66113;BMP280;52893;52.870;5.822;2023-07-24T09:17:04;100110.09;;;20.96
66113;BMP280;52893;52.870;5.822;2023-07-24T09:19:31;100111.31;;;20.95
66113;BMP280;52893;52.870;5.822;2023-07-24T09:22:08;100107.47;;;21.16
66113;BMP280;52893;52.870;5.822;2023-07-24T09:24:36;100107.59;;;21.32
66113;BMP280;52893;52.870;5.822;2023-07-24T09:27:06;100103.81;;;21.45
66113;BMP280;52893;52.870;5.822;2023-07-24T09:29:34;100099.22;;;21.82
66113;BMP280;52893;52.870;5.822;2023-07-24T09:32:01;100101.47;;;22.10
66113;BMP280;52893;52.870;5.822;2023-07-24T09:34:28;100097.53;;;22.27
66113;BMP280;52893;52.870;5.822;2023-07-24T09:36:56;100097.25;;;22.41
66113;BMP280;52893;52.870;5.822;2023-07-24T09:39:24;100100.94;;;22.54
66113;BMP280;52893;52.870;5.822;2023-07-24T09:41:51;100094.91;;;22.76
66113;BMP280;52893;52.870;5.822;2023-07-24T09:44:20;100088.84;;;22.97
66113;BMP280;52893;52.870;5.822;2023-07-24T09:46:47;100072.00;;;23.20
66113;BMP280;52893;52.870;5.822;2023-07-24T09:49:14;100083.28;;;23.29
66113;BMP280;52893;52.870;5.822;2023-07-24T09:51:42;100078.44;;;23.49
66113;BMP280;52893;52.870;5.822;2023-07-24T09:54:15;100091.72;;;23.58
66113;BMP280;52893;52.870;5.822;2023-07-24T09:56:44;100090.78;;;23.48
66113;BMP280;52893;52.870;5.822;2023-07-24T09:59:12;100082.06;;;23.46
66113;BMP280;52893;52.870;5.822;2023-07-24T10:01:41;100080.94;;;23.60
66113;BMP280;52893;52.870;5.822;2023-07-24T10:04:09;100081.41;;;23.42
66113;BMP280;52893;52.870;5.822;2023-07-24T10:06:36;100074.88;;;23.16
66113;BMP280;52893;52.870;5.822;2023-07-24T10:09:04;100079.28;;;22.98
66113;BMP280;52893;52.870;5.822;2023-07-24T10:11:32;100077.72;;;22.97
66113;BMP280;52893;52.870;5.822;2023-07-24T10:14:00;100063.28;;;23.02
66113;BMP280;52893;52.870;5.822;2023-07-24T10:16:27;100080.34;;;23.20
66113;BMP280;52893;52.870;5.822;2023-07-24T10:18:56;100073.94;;;23.23
66113;BMP280;52893;52.870;5.822;2023-07-24T10:21:26;100075.81;;;23.10
66113;BMP280;52893;52.870;5.822;2023-07-24T10:23:54;100059.47;;;22.96
66113;BMP280;52893;52.870;5.822;2023-07-24T10:26:24;100063.88;;;23.09
66113;BMP280;52893;52.870;5.822;2023-07-24T10:28:51;100054.41;;;23.07
66113;BMP280;52893;52.870;5.822;2023-07-24T10:31:21;100059.81;;;22.98
66113;BMP280;52893;52.870;5.822;2023-07-24T10:33:48;100049.19;;;22.93
66113;BMP280;52893;52.870;5.822;2023-07-24T10:36:19;100050.59;;;23.01
66113;BMP280;52893;52.870;5.822;2023-07-24T10:38:52;100054.78;;;23.09
66113;BMP280;52893;52.870;5.822;2023-07-24T10:41:20;100049.00;;;23.48
66113;BMP280;52893;52.870;5.822;2023-07-24T10:43:49;100059.03;;;24.03
66113;BMP280;52893;52.870;5.822;2023-07-24T10:46:18;100055.41;;;24.44
66113;BMP280;52893;52.870;5.822;2023-07-24T10:48:47;100044.03;;;24.76
66113;BMP280;52893;52.870;5.822;2023-07-24T10:51:14;100053.94;;;24.77
66113;BMP280;52893;52.870;5.822;2023-07-24T10:53:44;100050.91;;;24.84
66113;BMP280;52893;52.870;5.822;2023-07-24T10:56:12;100060.00;;;25.01
66113;BMP280;52893;52.870;5.822;2023-07-24T10:58:40;100053.78;;;25.18
66113;BMP280;52893;52.870;5.822;2023-07-24T11:01:07;100053.28;;;25.11
66113;BMP280;52893;52.870;5.822;2023-07-24T11:03:36;100048.03;;;25.00
66113;BMP280;52893;52.870;5.822;2023-07-24T11:06:03;100057.16;;;25.13
66113;BMP280;52893;52.870;5.822;2023-07-24T11:08:31;100053.72;;;24.97
66113;BMP280;52893;52.870;5.822;2023-07-24T11:11:01;100059.88;;;24.92
66113;BMP280;52893;52.870;5.822;2023-07-24T11:13:29;100063.09;;;25.03
66113;BMP280;52893;52.870;5.822;2023-07-24T11:16:04;100064.78;;;24.75
66113;BMP280;52893;52.870;5.822;2023-07-24T11:18:31;100064.50;;;24.07
66113;BMP280;52893;52.870;5.822;2023-07-24T11:20:58;100065.38;;;23.14
66113;BMP280;52893;52.870;5.822;2023-07-24T11:23:25;100079.44;;;22.19
66113;BMP280;52893;52.870;5.822;2023-07-24T11:25:53;100069.75;;;21.41
66113;BMP280;52893;52.870;5.822;2023-07-24T11:28:22;100069.78;;;20.88
66113;BMP280;52893;52.870;5.822;2023-07-24T11:30:49;100053.25;;;20.51
66113;BMP280;52893;52.870;5.822;2023-07-24T11:33:17;100062.22;;;20.31
66113;BMP280;52893;52.870;5.822;2023-07-24T11:35:45;100073.09;;;20.15
66113;BMP280;52893;52.870;5.822;2023-07-24T11:38:13;100076.81;;;20.02
66113;BMP280;52893;52.870;5.822;2023-07-24T11:40:42;100076.13;;;19.87
66113;BMP280;52893;52.870;5.822;2023-07-24T11:43:15;100081.00;;;19.76
66113;BMP280;52893;52.870;5.822;2023-07-24T11:45:44;100081.03;;;19.72
66113;BMP280;52893;52.870;5.822;2023-07-24T11:48:13;100064.03;;;19.70
66113;BMP280;52893;52.870;5.822;2023-07-24T11:50:43;100066.44;;;19.68
66113;BMP280;52893;52.870;5.822;2023-07-24T11:53:19;100062.16;;;19.60
66113;BMP280;52893;52.870;5.822;2023-07-24T11:55:48;100070.44;;;19.64
66113;BMP280;52893;52.870;5.822;2023-07-24T11:58:16;100065.28;;;19.62
66113;BMP280;52893;52.870;5.822;2023-07-24T12:00:45;100068.88;;;19.59
66113;BMP280;52893;52.870;5.822;2023-07-24T12:03:13;100067.28;;;19.62
66113;BMP280;52893;52.870;5.822;2023-07-24T12:05:41;100075.16;;;19.67
66113;BMP280;52893;52.870;5.822;2023-07-24T12:08:08;100077.47;;;19.75
66113;BMP280;52893;52.870;5.822;2023-07-24T12:10:37;100065.13;;;19.80
66113;BMP280;52893;52.870;5.822;2023-07-24T12:13:05;100074.81;;;20.02
66113;BMP280;52893;52.870;5.822;2023-07-24T12:15:33;100067.75;;;20.31
66113;BMP280;52893;52.870;5.822;2023-07-24T12:18:03;100074.53;;;20.61
66113;BMP280;52893;52.870;5.822;2023-07-24T12:20:30;100082.53;;;20.82
66113;BMP280;52893;52.870;5.822;2023-07-24T12:22:57;100069.66;;;20.68
66113;BMP280;52893;52.870;5.822;2023-07-24T12:25:25;100076.41;;;20.71
66113;BMP280;52893;52.870;5.822;2023-07-24T12:27:58;100069.31;;;20.66
66113;BMP280;52893;52.870;5.822;2023-07-24T12:30:25;100064.56;;;20.63
66113;BMP280;52893;52.870;5.822;2023-07-24T12:32:52;100072.47;;;20.65
66113;BMP280;52893;52.870;5.822;2023-07-24T12:35:21;100053.34;;;20.74
66113;BMP280;52893;52.870;5.822;2023-07-24T12:37:48;100070.78;;;21.01
66113;BMP280;52893;52.870;5.822;2023-07-24T12:40:15;100065.59;;;21.03
66113;BMP280;52893;52.870;5.822;2023-07-24T12:42:43;100064.88;;;20.99
66113;BMP280;52893;52.870;5.822;2023-07-24T12:45:10;100072.31;;;21.06
66113;BMP280;52893;52.870;5.822;2023-07-24T12:47:37;100079.25;;;21.17
66113;BMP280;52893;52.870;5.822;2023-07-24T12:50:05;100075.63;;;21.20
66113;BMP280;52893;52.870;5.822;2023-07-24T12:52:34;100069.25;;;21.23
66113;BMP280;52893;52.870;5.822;2023-07-24T12:55:01;100069.09;;;21.34
66113;BMP280;52893;52.870;5.822;2023-07-24T12:57:28;100075.72;;;21.40
66113;BMP280;52893;52.870;5.822;2023-07-24T12:59:55;100073.84;;;21.33
66113;BMP280;52893;52.870;5.822;2023-07-24T13:02:23;100062.91;;;21.23
66113;BMP280;52893;52.870;5.822;2023-07-24T13:04:50;100074.16;;;21.12
66113;BMP280;52893;52.870;5.822;2023-07-24T13:07:17;100082.72;;;20.98
66113;BMP280;52893;52.870;5.822;2023-07-24T13:09:46;100082.47;;;20.89
66113;BMP280;52893;52.870;5.822;2023-07-24T13:12:13;100075.59;;;20.97
66113;BMP280;52893;52.870;5.822;2023-07-24T13:14:40;100079.84;;;21.05
66113;BMP280;52893;52.870;5.822;2023-07-24T13:17:08;100091.56;;;21.16
66113;BMP280;52893;52.870;5.822;2023-07-24T13:19:35;100082.47;;;21.16
66113;BMP280;52893;52.870;5.822;2023-07-24T13:22:03;100087.50;;;21.47
66113;BMP280;52893;52.870;5.822;2023-07-24T13:24:30;100100.31;;;21.65
66113;BMP280;52893;52.870;5.822;2023-07-24T13:26:58;100095.44;;;21.69
66113;BMP280;52893;52.870;5.822;2023-07-24T13:29:26;100091.47;;;21.70
66113;BMP280;52893;52.870;5.822;2023-07-24T13:31:53;100106.03;;;21.77
66113;BMP280;52893;52.870;5.822;2023-07-24T13:34:21;100103.56;;;21.83
66113;BMP280;52893;52.870;5.822;2023-07-24T13:36:49;100107.84;;;21.87
66113;BMP280;52893;52.870;5.822;2023-07-24T13:39:16;100109.41;;;21.88
66113;BMP280;52893;52.870;5.822;2023-07-24T13:41:43;100108.19;;;21.89
66113;BMP280;52893;52.870;5.822;2023-07-24T13:44:11;100107.78;;;21.91
66113;BMP280;52893;52.870;5.822;2023-07-24T13:46:39;100105.28;;;21.96
66113;BMP280;52893;52.870;5.822;2023-07-24T13:49:06;100113.78;;;22.09
66113;BMP280;52893;52.870;5.822;2023-07-24T13:51:33;100114.47;;;22.13
66113;BMP280;52893;52.870;5.822;2023-07-24T13:54:00;100123.19;;;22.15
66113;BMP280;52893;52.870;5.822;2023-07-24T13:56:28;100131.16;;;22.13
66113;BMP280;52893;52.870;5.822;2023-07-24T13:58:57;100125.38;;;22.04
66113;BMP280;52893;52.870;5.822;2023-07-24T14:01:25;100125.91;;;21.99